createdAt,value
2018-07-29T00:00:43.325Z,22.30
2018-07-29T00:03:11.496Z,22.30
2018-07-29T00:05:39.733Z,22.40
2018-07-29T00:08:07.982Z,22.40
2018-07-29T00:10:36.268Z,22.40
2018-07-29T00:13:04.628Z,22.20
2018-07-29T00:15:32.836Z,22.20
2018-07-29T00:18:01.052Z,22.30
2018-07-29T00:20:29.244Z,22.30
2018-07-29T00:22:57.401Z,22.30
2018-07-29T00:25:25.614Z,22.40
2018-07-29T00:27:53.793Z,22.30
2018-07-29T00:30:22.004Z,22.40
2018-07-29T00:32:50.316Z,22.40
2018-07-29T00:35:18.492Z,22.40
2018-07-29T00:37:46.747Z,22.40
2018-07-29T00:40:14.953Z,22.30
2018-07-29T00:42:43.205Z,22.20
2018-07-29T00:45:11.488Z,22.10
2018-07-29T00:47:39.653Z,22.20
2018-07-29T00:50:07.905Z,22.20
2018-07-29T00:52:36.180Z,22.20
2018-07-29T00:55:04.983Z,22.20
2018-07-29T00:57:33.209Z,22.20
2018-07-29T01:00:01.385Z,22.20
2018-07-29T01:02:29.606Z,22.20
2018-07-29T01:04:57.784Z,22.30
2018-07-29T01:07:26.000Z,22.30
2018-07-29T01:09:54.501Z,22.30
2018-07-29T01:12:22.720Z,22.30
2018-07-29T01:14:50.959Z,22.20
2018-07-29T01:17:19.140Z,22.20
2018-07-29T01:22:15.309Z,22.10
2018-07-29T01:24:43.508Z,22.10
2018-07-29T01:27:11.724Z,22.10
2018-07-29T01:29:39.896Z,21.90
2018-07-29T01:32:08.121Z,21.80
2018-07-29T01:34:36.291Z,21.80
2018-07-29T01:37:04.580Z,21.80
2018-07-29T01:39:32.775Z,21.90
2018-07-29T01:42:01.280Z,21.90
2018-07-29T01:44:29.479Z,21.80
2018-07-29T01:46:57.657Z,21.90
2018-07-29T01:49:25.861Z,21.90
2018-07-29T01:51:54.122Z,21.90
2018-07-29T01:54:22.393Z,21.90
2018-07-29T01:56:50.659Z,21.90
2018-07-29T01:59:18.873Z,21.70
2018-07-29T02:01:47.089Z,21.70
2018-07-29T02:04:15.293Z,21.50
2018-07-29T02:06:43.454Z,21.30
2018-07-29T02:09:11.659Z,21.30
2018-07-29T02:11:39.832Z,21.40
2018-07-29T02:14:08.053Z,21.50
2018-07-29T02:16:36.244Z,21.50
2018-07-29T02:19:04.412Z,21.50
2018-07-29T02:21:32.617Z,21.40
2018-07-29T02:24:00.777Z,21.30
2018-07-29T02:26:28.981Z,21.10
2018-07-29T02:28:57.172Z,21.00
2018-07-29T02:31:25.333Z,20.90
2018-07-29T02:33:53.542Z,21.00
2018-07-29T02:36:21.708Z,20.90
2018-07-29T02:38:49.965Z,20.90
2018-07-29T02:41:18.170Z,20.90
2018-07-29T02:43:46.354Z,20.90
2018-07-29T02:46:14.557Z,20.80
2018-07-29T02:48:42.761Z,20.80
2018-07-29T02:51:10.957Z,20.80
2018-07-29T02:53:39.164Z,20.70
2018-07-29T02:56:07.346Z,20.80
2018-07-29T02:58:35.533Z,20.80
2018-07-29T03:01:03.753Z,20.70
2018-07-29T03:05:59.909Z,20.70
2018-07-29T03:08:28.088Z,20.70
2018-07-29T03:10:56.267Z,20.70
2018-07-29T03:13:24.438Z,20.50
2018-07-29T03:15:52.620Z,20.50
2018-07-29T03:18:20.795Z,20.50
2018-07-29T03:20:49.004Z,20.60
2018-07-29T03:23:17.228Z,20.60
2018-07-29T03:25:45.396Z,20.60
2018-07-29T03:28:13.588Z,20.60
2018-07-29T03:30:41.756Z,20.60
2018-07-29T03:33:09.939Z,20.60
2018-07-29T03:35:38.096Z,20.60
2018-07-29T03:38:06.344Z,20.60
2018-07-29T03:40:34.523Z,20.70
2018-07-29T03:43:02.684Z,20.60
2018-07-29T03:45:30.872Z,20.60
2018-07-29T03:47:59.027Z,20.70
2018-07-29T03:50:27.233Z,20.70
2018-07-29T03:52:55.453Z,20.70
2018-07-29T03:55:24.573Z,20.60
2018-07-29T03:57:52.797Z,20.70
2018-07-29T04:00:21.000Z,20.70
2018-07-29T04:02:49.200Z,20.80
2018-07-29T04:05:17.412Z,20.90
2018-07-29T04:07:45.564Z,21.00
2018-07-29T04:10:13.766Z,21.00
2018-07-29T04:12:41.984Z,21.00
2018-07-29T04:15:10.196Z,20.90
2018-07-29T04:17:38.396Z,20.70
2018-07-29T04:20:06.688Z,20.60
2018-07-29T04:22:34.877Z,20.60
2018-07-29T04:25:03.083Z,20.60
2018-07-29T04:27:31.277Z,20.60
2018-07-29T04:29:59.480Z,20.60
2018-07-29T04:32:27.633Z,20.60
2018-07-29T04:34:55.884Z,20.60
2018-07-29T04:37:24.045Z,20.60
2018-07-29T04:39:52.240Z,20.70
2018-07-29T04:42:20.428Z,20.70
2018-07-29T04:44:48.617Z,20.70
2018-07-29T04:47:16.816Z,20.70
2018-07-29T04:49:44.968Z,20.70
2018-07-29T04:52:16.016Z,20.80
2018-07-29T04:54:44.206Z,20.80
2018-07-29T04:57:12.389Z,20.60
2018-07-29T04:59:40.660Z,20.50
2018-07-29T05:02:08.884Z,20.60
2018-07-29T05:04:37.044Z,20.70
2018-07-29T05:07:05.312Z,20.80
2018-07-29T05:09:33.476Z,20.90
2018-07-29T05:12:01.661Z,21.00
2018-07-29T05:14:29.832Z,21.00
2018-07-29T05:16:58.036Z,21.20
2018-07-29T05:19:26.225Z,21.20
2018-07-29T05:21:54.420Z,21.30
2018-07-29T05:24:22.625Z,21.20
2018-07-29T05:26:50.781Z,21.20
2018-07-29T05:29:19.050Z,21.20
2018-07-29T05:31:47.284Z,21.30
2018-07-29T05:34:15.461Z,21.40
2018-07-29T05:36:43.660Z,21.50
2018-07-29T05:39:12.619Z,21.60
2018-07-29T05:41:41.252Z,21.60
2018-07-29T05:44:09.708Z,21.50
2018-07-29T05:46:38.243Z,21.60
2018-07-29T05:49:06.745Z,21.70
2018-07-29T05:51:34.909Z,21.80
2018-07-29T05:54:03.092Z,21.70
2018-07-29T05:56:31.324Z,21.60
2018-07-29T05:58:59.544Z,21.60
2018-07-29T06:01:27.786Z,21.70
2018-07-29T06:03:55.984Z,21.60
2018-07-29T06:06:24.215Z,21.60
2018-07-29T06:08:52.376Z,21.80
2018-07-29T06:11:20.625Z,21.80
2018-07-29T06:13:48.852Z,21.90
2018-07-29T06:16:17.089Z,21.90
2018-07-29T06:18:45.365Z,22.20
2018-07-29T06:21:13.591Z,22.30
2018-07-29T06:23:41.792Z,22.40
2018-07-29T06:26:10.021Z,22.60
2018-07-29T06:28:38.251Z,22.80
2018-07-29T06:31:06.464Z,23.10
2018-07-29T06:33:34.708Z,23.50
2018-07-29T06:36:02.998Z,23.90
2018-07-29T06:38:31.177Z,24.20
2018-07-29T06:40:59.404Z,24.70
2018-07-29T06:43:27.586Z,24.90
2018-07-29T06:45:55.795Z,24.40
2018-07-29T06:48:24.096Z,24.40
2018-07-29T06:50:52.344Z,24.70
2018-07-29T06:53:20.565Z,25.00
2018-07-29T06:55:48.723Z,25.30
2018-07-29T06:58:16.920Z,25.20
2018-07-29T07:00:45.122Z,25.50
2018-07-29T07:03:13.441Z,25.60
2018-07-29T07:05:41.640Z,25.70
2018-07-29T07:08:09.798Z,26.10
2018-07-29T07:10:38.009Z,26.40
2018-07-29T07:13:06.294Z,26.70
2018-07-29T07:15:35.077Z,26.50
2018-07-29T07:18:03.478Z,26.70
2018-07-29T07:20:31.716Z,27.00
2018-07-29T07:22:59.932Z,27.10
2018-07-29T07:25:28.116Z,27.00
2018-07-29T07:27:56.358Z,27.00
2018-07-29T07:30:24.594Z,27.10
2018-07-29T07:32:52.774Z,27.10
2018-07-29T07:35:21.072Z,27.00
2018-07-29T07:37:49.345Z,27.10
2018-07-29T07:40:17.536Z,27.00
2018-07-29T07:42:45.748Z,27.30
2018-07-29T07:45:13.937Z,27.20
2018-07-29T07:47:42.153Z,27.40
2018-07-29T07:50:10.324Z,27.20
2018-07-29T07:52:38.572Z,27.20
2018-07-29T07:55:06.793Z,27.30
2018-07-29T07:57:34.951Z,27.30
2018-07-29T08:00:03.673Z,27.20
2018-07-29T08:02:31.896Z,27.20
2018-07-29T08:05:00.113Z,27.30
2018-07-29T08:07:28.368Z,27.40
2018-07-29T08:09:56.609Z,27.30
2018-07-29T08:12:24.869Z,27.20
2018-07-29T08:14:53.048Z,27.20
2018-07-29T08:19:49.233Z,26.90
2018-07-29T08:22:17.470Z,27.00
2018-07-29T08:24:45.685Z,27.10
2018-07-29T08:27:13.852Z,27.30
2018-07-29T08:29:42.077Z,27.60
2018-07-29T08:32:10.248Z,27.60
2018-07-29T08:37:06.560Z,27.80
2018-07-29T08:39:34.747Z,27.90
2018-07-29T08:42:03.369Z,27.80
2018-07-29T08:44:31.540Z,27.80
2018-07-29T08:46:59.736Z,28.20
2018-07-29T08:49:27.940Z,28.30
2018-07-29T08:51:56.148Z,28.50
2018-07-29T08:54:24.400Z,28.50
2018-07-29T08:56:52.616Z,28.50
2018-07-29T08:59:20.823Z,28.60
2018-07-29T09:01:49.089Z,28.70
2018-07-29T09:04:17.296Z,28.70
2018-07-29T09:06:45.498Z,28.70
2018-07-29T09:09:13.772Z,28.60
2018-07-29T09:11:42.026Z,28.70
2018-07-29T09:14:10.292Z,29.00
2018-07-29T09:16:38.520Z,29.20
2018-07-29T09:19:06.780Z,29.30
2018-07-29T09:21:35.042Z,29.30
2018-07-29T09:24:03.419Z,29.20
2018-07-29T09:26:31.802Z,29.30
2018-07-29T09:28:59.989Z,29.30
2018-07-29T09:31:28.161Z,29.20
2018-07-29T09:33:56.461Z,29.10
2018-07-29T09:36:24.925Z,29.40
2018-07-29T09:38:53.177Z,29.30
2018-07-29T09:41:21.433Z,29.30
2018-07-29T09:43:49.804Z,29.50
2018-07-29T09:46:18.089Z,29.50
2018-07-29T09:48:46.427Z,29.40
2018-07-29T09:51:14.604Z,29.60
2018-07-29T09:53:42.825Z,29.50
2018-07-29T09:56:11.057Z,29.60
2018-07-29T09:58:39.301Z,29.50
2018-07-29T10:01:09.549Z,29.80
2018-07-29T10:03:38.976Z,30.00
2018-07-29T10:06:07.424Z,30.10
2018-07-29T10:08:36.057Z,29.60
2018-07-29T10:11:04.403Z,29.70
2018-07-29T10:13:32.639Z,29.90
2018-07-29T10:16:00.916Z,30.10
2018-07-29T10:18:29.397Z,30.10
2018-07-29T10:20:57.884Z,30.20
2018-07-29T10:23:26.552Z,30.20
2018-07-29T10:25:55.794Z,30.10
2018-07-29T10:28:24.234Z,30.20
2018-07-29T10:30:53.009Z,30.00
2018-07-29T10:33:21.336Z,30.00
2018-07-29T10:35:49.568Z,30.00
2018-07-29T10:38:17.950Z,29.90
2018-07-29T10:40:46.211Z,29.90
2018-07-29T10:43:14.433Z,29.90
2018-07-29T10:45:42.661Z,30.20
2018-07-29T10:48:11.022Z,30.30
2018-07-29T10:50:39.924Z,30.40
2018-07-29T10:53:08.755Z,30.20
2018-07-29T10:55:37.116Z,30.40
2018-07-29T10:58:05.309Z,30.50
2018-07-29T11:00:33.585Z,30.50
2018-07-29T11:03:01.849Z,30.10
2018-07-29T11:05:30.014Z,29.70
2018-07-29T11:07:58.226Z,29.70
2018-07-29T11:10:26.427Z,29.90
2018-07-29T11:12:54.665Z,30.00
2018-07-29T11:15:22.886Z,30.00
2018-07-29T11:17:51.112Z,30.10
2018-07-29T11:20:19.374Z,30.20
2018-07-29T11:22:47.585Z,30.30
2018-07-29T11:25:15.865Z,30.40
2018-07-29T11:27:44.056Z,30.70
2018-07-29T11:30:12.252Z,30.60
2018-07-29T11:32:40.468Z,30.40
2018-07-29T11:35:08.665Z,30.50
2018-07-29T11:37:36.992Z,30.70
2018-07-29T11:40:05.184Z,30.40
2018-07-29T11:42:33.381Z,30.30
2018-07-29T11:45:01.576Z,30.30
2018-07-29T11:47:29.749Z,30.30
2018-07-29T11:49:57.947Z,30.40
2018-07-29T11:52:26.205Z,30.40
2018-07-29T11:54:54.686Z,30.00
2018-07-29T11:57:23.037Z,30.10
2018-07-29T11:59:51.195Z,30.40
2018-07-29T12:02:19.441Z,30.50
2018-07-29T12:04:47.628Z,30.40
2018-07-29T12:07:15.817Z,30.50
2018-07-29T12:09:44.055Z,30.70
2018-07-29T12:12:12.209Z,31.20
2018-07-29T12:14:40.413Z,31.60
2018-07-29T12:17:08.706Z,32.00
2018-07-29T12:19:36.841Z,32.40
2018-07-29T12:22:05.070Z,32.40
2018-07-29T12:24:33.360Z,32.00
2018-07-29T12:27:01.595Z,31.60
2018-07-29T12:29:29.821Z,31.40
2018-07-29T12:31:58.710Z,31.40
2018-07-29T12:34:27.745Z,31.60
2018-07-29T12:36:55.962Z,31.70
2018-07-29T12:39:24.182Z,31.70
2018-07-29T12:41:52.353Z,32.10
2018-07-29T12:44:20.548Z,32.10
2018-07-29T12:46:48.748Z,32.20
2018-07-29T12:49:18.017Z,32.00
2018-07-29T12:51:46.240Z,31.90
2018-07-29T12:54:14.442Z,31.60
2018-07-29T12:56:42.701Z,31.40
2018-07-29T12:59:10.912Z,31.40
2018-07-29T13:01:39.060Z,31.50
2018-07-29T13:04:07.387Z,31.60
2018-07-29T13:06:35.645Z,31.90
2018-07-29T13:09:06.345Z,32.10
2018-07-29T13:11:34.549Z,32.50
2018-07-29T13:14:02.727Z,32.70
2018-07-29T13:16:30.939Z,32.70
2018-07-29T13:18:59.124Z,32.90
2018-07-29T13:21:27.327Z,33.30
2018-07-29T13:23:55.537Z,33.50
2018-07-29T13:26:23.753Z,33.70
2018-07-29T13:28:51.969Z,33.40
2018-07-29T13:31:20.186Z,33.20
2018-07-29T13:33:48.381Z,33.00
2018-07-29T13:36:16.622Z,32.70
2018-07-29T13:38:44.840Z,32.00
2018-07-29T13:41:13.175Z,32.00
2018-07-29T13:43:41.436Z,32.30
2018-07-29T13:46:09.704Z,32.40
2018-07-29T13:48:37.897Z,32.80
2018-07-29T13:51:06.252Z,32.90
2018-07-29T13:53:34.461Z,32.40
2018-07-29T13:56:02.686Z,32.10
2018-07-29T13:58:30.876Z,32.40
2018-07-29T14:00:59.070Z,32.70
2018-07-29T14:03:27.397Z,33.20
2018-07-29T14:05:55.601Z,33.10
2018-07-29T14:08:23.824Z,33.40
2018-07-29T14:10:52.163Z,33.30
2018-07-29T14:13:20.349Z,33.40
2018-07-29T14:15:48.576Z,33.40
2018-07-29T14:18:16.780Z,33.30
2018-07-29T14:20:45.336Z,33.30
2018-07-29T14:23:13.574Z,33.10
2018-07-29T14:25:41.943Z,33.30
2018-07-29T14:28:10.205Z,33.10
2018-07-29T14:30:38.423Z,32.50
2018-07-29T14:33:07.418Z,32.20
2018-07-29T14:35:35.718Z,32.40
2018-07-29T14:38:04.181Z,32.60
2018-07-29T14:40:32.459Z,32.70
2018-07-29T14:43:00.647Z,32.80
2018-07-29T14:45:28.952Z,32.60
2018-07-29T14:47:57.245Z,32.50
2018-07-29T14:50:25.473Z,32.20
2018-07-29T14:52:53.782Z,32.00
2018-07-29T14:55:21.976Z,32.20
2018-07-29T14:57:50.191Z,32.10
2018-07-29T15:00:18.591Z,31.90
2018-07-29T15:02:46.793Z,31.30
2018-07-29T15:05:15.005Z,31.30
2018-07-29T15:07:43.214Z,31.30
2018-07-29T15:10:11.548Z,31.20
2018-07-29T15:12:39.776Z,31.10
2018-07-29T15:15:08.466Z,31.20
2018-07-29T15:17:36.677Z,31.10
2018-07-29T15:20:04.917Z,31.30
2018-07-29T15:22:33.225Z,31.00
2018-07-29T15:25:01.440Z,30.30
2018-07-29T15:27:29.662Z,30.20
2018-07-29T15:29:57.932Z,30.50
2018-07-29T15:32:26.105Z,30.90
2018-07-29T15:34:54.321Z,31.20
2018-07-29T15:37:22.546Z,31.10
2018-07-29T15:39:50.841Z,31.20
2018-07-29T15:42:19.052Z,31.20
2018-07-29T15:44:47.270Z,31.10
2018-07-29T15:47:16.221Z,30.90
2018-07-29T15:49:44.484Z,30.60
2018-07-29T15:52:12.737Z,30.40
2018-07-29T15:54:40.957Z,30.40
2018-07-29T15:57:09.242Z,30.40
2018-07-29T15:59:37.629Z,30.40
2018-07-29T16:02:05.749Z,30.30
2018-07-29T16:04:33.983Z,30.40
2018-07-29T16:07:02.250Z,30.30
2018-07-29T16:09:30.454Z,30.20
2018-07-29T16:11:58.675Z,30.00
2018-07-29T16:14:26.847Z,29.90
2018-07-29T16:16:55.032Z,29.90
2018-07-29T16:19:23.268Z,29.90
2018-07-29T16:21:51.496Z,29.80
2018-07-29T16:24:19.713Z,29.70
2018-07-29T16:26:47.993Z,29.60
2018-07-29T16:29:16.199Z,29.60
2018-07-29T16:31:44.425Z,29.50
2018-07-29T16:34:12.621Z,29.50
2018-07-29T16:36:40.820Z,29.50
2018-07-29T16:39:11.069Z,29.50
2018-07-29T16:41:39.317Z,29.50
2018-07-29T16:44:07.766Z,29.50
2018-07-29T16:46:35.983Z,29.40
2018-07-29T16:49:04.173Z,29.20
2018-07-29T16:51:32.369Z,29.00
2018-07-29T16:54:00.558Z,29.00
2018-07-29T16:56:28.867Z,29.00
2018-07-29T16:58:57.125Z,29.00
2018-07-29T17:01:25.296Z,28.90
2018-07-29T17:03:53.639Z,28.90
2018-07-29T17:06:22.077Z,29.00
2018-07-29T17:08:50.344Z,29.00
2018-07-29T17:11:18.532Z,29.00
2018-07-29T17:13:46.697Z,29.00
2018-07-29T17:16:14.970Z,28.90
2018-07-29T17:18:43.141Z,28.90
2018-07-29T17:21:11.346Z,28.90
2018-07-29T17:23:39.544Z,28.90
2018-07-29T17:26:07.761Z,28.80
2018-07-29T17:28:35.949Z,28.70
2018-07-29T17:31:04.186Z,28.70
2018-07-29T17:33:32.355Z,28.70
2018-07-29T17:36:00.613Z,28.70
2018-07-29T17:38:28.832Z,28.70
2018-07-29T17:40:57.043Z,28.70
2018-07-29T17:43:25.241Z,28.60
2018-07-29T17:45:53.416Z,28.60
2018-07-29T17:48:21.634Z,28.60
2018-07-29T17:50:50.653Z,28.60
2018-07-29T17:53:18.844Z,28.60
2018-07-29T17:55:47.405Z,28.60
2018-07-29T17:58:15.572Z,28.50
2018-07-29T18:00:43.800Z,28.50
2018-07-29T18:03:11.993Z,28.40
2018-07-29T18:05:40.213Z,28.30
2018-07-29T18:08:08.415Z,28.30
2018-07-29T18:10:36.605Z,28.20
2018-07-29T18:13:04.844Z,28.10
2018-07-29T18:15:33.050Z,28.10
2018-07-29T18:18:01.373Z,28.10
2018-07-29T18:20:29.813Z,28.00
2018-07-29T18:22:58.056Z,27.90
2018-07-29T18:25:26.855Z,27.80
2018-07-29T18:27:55.082Z,27.80
2018-07-29T18:30:23.344Z,27.70
2018-07-29T18:32:51.654Z,27.60
2018-07-29T18:35:20.558Z,27.40
2018-07-29T18:37:48.880Z,27.20
2018-07-29T18:40:17.047Z,27.20
2018-07-29T18:42:45.284Z,27.20
2018-07-29T18:45:13.508Z,27.10
2018-07-29T18:47:41.694Z,27.00
2018-07-29T18:50:09.887Z,26.80
2018-07-29T18:52:38.105Z,26.70
2018-07-29T18:55:06.441Z,26.70
2018-07-29T18:57:34.665Z,26.50
2018-07-29T19:00:02.957Z,26.50
2018-07-29T19:02:31.270Z,26.40
2018-07-29T19:04:59.451Z,26.40
2018-07-29T19:07:27.657Z,26.30
2018-07-29T19:09:55.865Z,26.30
2018-07-29T19:12:24.085Z,26.20
2018-07-29T19:14:53.881Z,26.20
2018-07-29T19:17:22.160Z,26.10
2018-07-29T19:19:50.385Z,26.00
2018-07-29T19:22:18.672Z,25.90
2018-07-29T19:24:46.961Z,25.60
2018-07-29T19:27:15.761Z,25.60
2018-07-29T19:29:44.827Z,25.60
2018-07-29T19:32:13.021Z,25.60
2018-07-29T19:34:42.305Z,25.60
2018-07-29T19:37:10.529Z,25.50
2018-07-29T19:39:38.746Z,25.50
2018-07-29T19:42:07.013Z,25.50
2018-07-29T19:44:35.265Z,25.50
2018-07-29T19:47:04.516Z,25.50
2018-07-29T19:49:32.712Z,25.50
2018-07-29T19:52:00.868Z,25.30
2018-07-29T19:54:30.129Z,25.30
2018-07-29T19:56:59.933Z,25.30
2018-07-29T19:59:28.568Z,25.10
2018-07-29T20:01:56.849Z,25.10
2018-07-29T20:04:25.872Z,25.00
2018-07-29T20:06:54.844Z,25.00
2018-07-29T20:09:23.984Z,25.00
2018-07-29T20:11:53.472Z,25.00
2018-07-29T20:14:22.352Z,25.00
2018-07-29T20:16:50.529Z,24.90
2018-07-29T20:19:18.728Z,24.80
2018-07-29T20:21:48.826Z,24.70
2018-07-29T20:24:18.974Z,24.70
2018-07-29T20:26:47.294Z,24.70
2018-07-29T20:29:15.497Z,24.60
2018-07-29T20:31:43.681Z,24.70
2018-07-29T20:34:11.902Z,24.60
2018-07-29T20:36:40.121Z,24.50
2018-07-29T20:39:10.244Z,24.30
2018-07-29T20:41:38.981Z,24.20
2018-07-29T20:44:07.441Z,24.10
2018-07-29T20:46:35.656Z,24.00
2018-07-29T20:49:05.670Z,24.00
2018-07-29T20:51:34.961Z,23.90
2018-07-29T20:54:03.497Z,23.90
2018-07-29T20:56:31.676Z,23.90
2018-07-29T20:58:59.889Z,23.80
2018-07-29T21:01:28.069Z,23.70
2018-07-29T21:03:56.312Z,23.70
2018-07-29T21:06:24.509Z,23.70
2018-07-29T21:08:53.345Z,23.90
2018-07-29T21:11:21.561Z,24.00
2018-07-29T21:13:50.121Z,24.00
2018-07-29T21:16:18.348Z,24.00
2018-07-29T21:18:46.541Z,24.00
2018-07-29T21:21:14.758Z,24.00
2018-07-29T21:23:42.987Z,23.90
2018-07-29T21:26:11.148Z,23.90
2018-07-29T21:28:39.364Z,23.90
2018-07-29T21:31:07.749Z,23.90
2018-07-29T21:33:35.961Z,24.00
2018-07-29T21:36:04.265Z,23.90
2018-07-29T21:38:32.437Z,23.80
2018-07-29T21:41:00.736Z,23.50
2018-07-29T21:43:28.848Z,23.40
2018-07-29T21:45:57.039Z,23.50
2018-07-29T21:48:25.209Z,23.50
2018-07-29T21:50:53.418Z,23.50
2018-07-29T21:53:21.629Z,23.50
2018-07-29T21:55:49.784Z,23.40
2018-07-29T21:58:17.992Z,23.30
2018-07-29T22:00:46.185Z,23.40
2018-07-29T22:03:14.434Z,23.40
2018-07-29T22:05:42.645Z,23.40
2018-07-29T22:08:10.822Z,23.20
2018-07-29T22:10:39.025Z,23.00
2018-07-29T22:13:07.229Z,23.10
2018-07-29T22:15:35.432Z,23.10
2018-07-29T22:18:03.710Z,23.10
2018-07-29T22:20:31.897Z,23.10
2018-07-29T22:23:00.126Z,23.10
2018-07-29T22:25:33.777Z,22.90
2018-07-29T22:28:02.052Z,22.70
2018-07-29T22:30:35.728Z,22.60
2018-07-29T22:33:04.048Z,22.60
2018-07-29T22:35:32.225Z,22.60
2018-07-29T22:38:00.414Z,22.60
2018-07-29T22:40:28.605Z,22.70
2018-07-29T22:42:56.805Z,22.70
2018-07-29T22:45:25.036Z,22.70
2018-07-29T22:47:53.208Z,22.60
2018-07-29T22:50:21.417Z,22.60
2018-07-29T22:55:17.543Z,22.50
2018-07-29T22:57:45.728Z,22.40
2018-07-29T23:00:13.912Z,22.30
2018-07-29T23:02:42.136Z,22.10
2018-07-29T23:05:10.393Z,21.90
2018-07-29T23:07:38.560Z,21.90
2018-07-29T23:10:08.648Z,21.80
2018-07-29T23:12:37.821Z,21.90
2018-07-29T23:15:07.574Z,21.90
2018-07-29T23:17:35.744Z,22.00
2018-07-29T23:20:04.584Z,22.00
2018-07-29T23:22:32.789Z,22.00
2018-07-29T23:25:00.974Z,22.00
2018-07-29T23:27:29.176Z,21.70
2018-07-29T23:29:57.369Z,21.90
2018-07-29T23:32:25.568Z,21.80
2018-07-29T23:34:53.725Z,21.80
2018-07-29T23:37:21.960Z,21.90
2018-07-29T23:39:50.252Z,21.90
2018-07-29T23:42:18.404Z,22.00
2018-07-29T23:44:46.616Z,21.90
2018-07-29T23:47:14.810Z,21.90
2018-07-29T23:49:43.014Z,21.90
2018-07-29T23:52:11.234Z,21.90
2018-07-29T23:54:39.416Z,21.80
2018-07-29T23:57:07.636Z,21.80
2018-07-29T23:59:35.800Z,21.70
